Time;durP1;ratioP1;P1;durP2;ratioP2;P2;SDS_P1;SDS_P2;PMS_P1;PMS_P2;Temp;Humidity;BMP_temperature;BMP_pressure;BME280_temperature;BME280_humidity;BME280_pressure;Samples;Min_cycle;Max_cycle;Signal;HPM_P1;HPM_P2
2023/10/23 00:02:21;;;;;;;;;;;;;;;17.69;58.58;99395.09;10330124;28;949;-75
2023/10/23 00:07:16;;;;;;;;;;;;;;;17.69;58.78;99405.66;10329311;28;906;-75
2023/10/23 00:12:12;;;;;;;;;;;;;;;17.68;58.73;99402.16;10329153;28;968;-74
2023/10/23 00:17:08;;;;;;;;;;;;;;;17.66;58.73;99409.28;10329466;28;2007;-74
2023/10/23 00:22:04;;;;;;;;;;;;;;;17.65;58.81;99415.47;10329359;28;819;-74
2023/10/23 00:27:00;;;;;;;;;;;;;;;17.64;58.75;99405.00;10329249;28;940;-74
2023/10/23 00:31:56;;;;;;;;;;;;;;;17.63;59.12;99401.53;10328635;28;852;-74
2023/10/23 00:36:52;;;;;;;;;;;;;;;17.63;58.74;99405.91;10328043;28;1886;-74
2023/10/23 00:41:48;;;;;;;;;;;;;;;17.62;58.81;99420.88;10328558;28;860;-75
2023/10/23 00:46:44;;;;;;;;;;;;;;;17.61;58.71;99419.19;10328386;28;762;-74
2023/10/23 00:51:40;;;;;;;;;;;;;;;17.59;58.69;99423.66;10328863;28;1316;-75
2023/10/23 00:56:36;;;;;;;;;;;;;;;17.60;58.68;99422.72;10328561;28;1906;-74
2023/10/23 01:01:32;;;;;;;;;;;;;;;17.57;58.94;99425.53;10327724;28;778;-74
2023/10/23 01:06:28;;;;;;;;;;;;;;;17.59;58.84;99430.72;10327431;28;948;-74
2023/10/23 01:11:23;;;;;;;;;;;;;;;17.57;58.91;99430.78;10327295;28;813;-74
2023/10/23 01:16:19;;;;;;;;;;;;;;;17.56;58.68;99421.19;10327108;28;1878;-74
2023/10/23 01:21:15;;;;;;;;;;;;;;;17.56;58.93;99430.88;10327565;28;774;-74
2023/10/23 01:26:11;;;;;;;;;;;;;;;17.53;58.97;99430.09;10326752;28;873;-74
2023/10/23 01:31:07;;;;;;;;;;;;;;;17.53;58.77;99430.09;10326892;28;785;-74
2023/10/23 01:36:03;;;;;;;;;;;;;;;17.54;58.77;99425.66;10326425;28;1902;-74
2023/10/23 01:40:59;;;;;;;;;;;;;;;17.52;58.88;99425.72;10326930;28;893;-74
2023/10/23 01:45:54;;;;;;;;;;;;;;;17.51;58.71;99428.47;10326460;28;917;-74
2023/10/23 01:50:50;;;;;;;;;;;;;;;17.50;58.92;99432.88;10317441;28;1231;-74
2023/10/23 01:55:46;;;;;;;;;;;;;;;17.50;58.88;99429.38;10325832;28;1913;-74
2023/10/23 02:00:42;;;;;;;;;;;;;;;17.49;59.00;99436.41;10325765;28;780;-74
2023/10/23 02:05:38;;;;;;;;;;;;;;;17.50;58.72;99424.09;10326262;28;798;-74
2023/10/23 02:10:34;;;;;;;;;;;;;;;17.48;58.68;99429.44;10325117;28;952;-74
2023/10/23 02:15:30;;;;;;;;;;;;;;;17.47;58.97;99426.88;10325955;28;1949;-74
2023/10/23 02:20:27;;;;;;;;;;;;;;;17.47;59.04;99432.16;10325329;28;869;-74
2023/10/23 02:25:23;;;;;;;;;;;;;;;17.47;58.95;99424.25;10325192;28;889;-74
2023/10/23 02:30:19;;;;;;;;;;;;;;;17.46;58.90;99430.44;10324730;28;985;-74
2023/10/23 02:35:15;;;;;;;;;;;;;;;17.44;58.89;99437.56;10325045;28;1890;-75
2023/10/23 02:40:11;;;;;;;;;;;;;;;17.45;59.00;99439.28;10324919;28;900;-74
2023/10/23 02:45:07;;;;;;;;;;;;;;;17.43;58.78;99441.13;10324891;28;813;-74
2023/10/23 02:50:03;;;;;;;;;;;;;;;17.43;58.75;99449.91;10324817;28;1144;-75
2023/10/23 02:54:59;;;;;;;;;;;;;;;17.42;58.79;99457.84;10324608;28;1977;-74
2023/10/23 02:59:55;;;;;;;;;;;;;;;17.41;58.78;99458.78;10332232;28;822;-74
2023/10/23 03:04:51;;;;;;;;;;;;;;;17.41;58.90;99458.78;10333167;28;810;-74
2023/10/23 03:09:47;;;;;;;;;;;;;;;17.41;58.84;99458.78;10332901;28;869;-75
2023/10/23 03:14:43;;;;;;;;;;;;;;;17.39;59.09;99461.47;10331844;28;1894;-75
2023/10/23 03:19:39;;;;;;;;;;;;;;;17.38;58.87;99456.31;10331786;28;921;-74
2023/10/23 03:24:35;;;;;;;;;;;;;;;17.39;59.03;99460.63;10332142;28;821;-74
2023/10/23 03:29:31;;;;;;;;;;;;;;;17.37;58.84;99452.81;10331959;28;782;-74
2023/10/23 03:34:27;;;;;;;;;;;;;;;17.37;59.08;99457.22;10331776;28;1953;-74
2023/10/23 03:39:23;;;;;;;;;;;;;;;17.37;59.03;99462.47;10331180;28;897;-74
2023/10/23 03:44:18;;;;;;;;;;;;;;;17.36;58.96;99460.78;10331484;28;868;-74
2023/10/23 03:49:14;;;;;;;;;;;;;;;17.36;58.91;99471.31;10322677;28;1091;-74
2023/10/23 03:54:11;;;;;;;;;;;;;;;17.35;58.92;99467.00;10330845;28;2026;-74
2023/10/23 03:59:07;;;;;;;;;;;;;;;17.35;59.00;99472.25;10330854;28;858;-74
2023/10/23 04:04:02;;;;;;;;;;;;;;;17.34;58.95;99474.00;10330692;28;783;-74
2023/10/23 04:08:58;;;;;;;;;;;;;;;17.33;58.96;99477.59;10330822;28;879;-74
2023/10/23 04:13:54;;;;;;;;;;;;;;;17.32;58.95;99478.53;10329068;28;1960;-74
2023/10/23 04:18:50;;;;;;;;;;;;;;;17.31;59.02;99480.28;10329495;28;1116;-74
2023/10/23 04:23:46;;;;;;;;;;;;;;;17.37;58.85;99475.66;10329809;28;983;-74
2023/10/23 04:28:42;;;;;;;;;;;;;;;17.40;58.68;99480.81;10329126;28;783;-74
2023/10/23 04:33:38;;;;;;;;;;;;;;;17.43;58.47;99478.88;10328790;28;1898;-74
2023/10/23 04:38:34;;;;;;;;;;;;;;;17.46;58.65;99488.41;10330154;28;903;-74
2023/10/23 04:43:30;;;;;;;;;;;;;;;17.50;58.35;99496.13;10328558;28;858;-74
2023/10/23 04:48:26;;;;;;;;;;;;;;;17.52;58.29;99490.75;10328568;28;952;-76
2023/10/23 04:53:22;;;;;;;;;;;;;;;17.56;58.29;99491.50;10327583;28;1987;-76
2023/10/23 04:58:17;;;;;;;;;;;;;;;17.60;58.30;99495.69;10327805;28;798;-76
2023/10/23 05:03:13;;;;;;;;;;;;;;;17.60;58.29;99485.97;10327614;28;888;-71
2023/10/23 05:08:09;;;;;;;;;;;;;;;17.62;58.29;99489.41;10327459;28;954;-74
2023/10/23 05:13:05;;;;;;;;;;;;;;;17.63;58.24;99490.25;10327251;28;1894;-74
2023/10/23 05:18:01;;;;;;;;;;;;;;;17.60;58.51;99490.41;10327116;28;908;-74
2023/10/23 05:22:57;;;;;;;;;;;;;;;17.60;58.51;99491.25;10327137;28;809;-74
2023/10/23 05:27:53;;;;;;;;;;;;;;;17.60;58.50;99482.50;10326153;28;838;-74
2023/10/23 05:32:49;;;;;;;;;;;;;;;17.61;58.63;99482.44;10326630;28;785;-74
2023/10/23 05:37:44;;;;;;;;;;;;;;;17.65;58.23;99483.13;10326372;28;1894;-73
2023/10/23 05:42:40;;;;;;;;;;;;;;;17.66;58.59;99485.72;10326909;28;820;-74
2023/10/23 05:47:37;;;;;;;;;;;;;;;17.71;58.32;99483.72;10325422;28;941;-76
2023/10/23 05:52:33;;;;;;;;;;;;;;;17.76;58.28;99496.66;10319126;28;1319;-76
2023/10/23 05:57:28;;;;;;;;;;;;;;;17.77;58.28;99493.13;10325394;28;1983;-77
2023/10/23 06:02:24;;;;;;;;;;;;;;;17.80;58.14;99498.28;10325150;28;920;-80
2023/10/23 06:07:20;;;;;;;;;;;;;;;17.83;58.30;99492.00;10324575;28;853;-77
2023/10/23 06:12:16;;;;;;;;;;;;;;;17.84;58.15;99489.31;10324752;28;862;-78
2023/10/23 06:17:12;;;;;;;;;;;;;;;17.87;58.05;99497.06;10325278;28;1961;-79
2023/10/23 06:22:08;;;;;;;;;;;;;;;17.90;58.10;99499.56;10325891;28;818;-79
2023/10/23 06:27:04;;;;;;;;;;;;;;;17.97;57.75;99494.81;10325187;28;778;-72
2023/10/23 06:31:59;;;;;;;;;;;;;;;18.03;57.61;99502.47;10299005;28;1009;-71
2023/10/23 06:36:56;;;;;;;;;;;;;;;18.10;57.62;99505.63;10291443;28;1961;-74
2023/10/23 06:41:52;;;;;;;;;;;;;;;18.14;57.53;99507.22;10291363;28;926;-70
2023/10/23 06:46:48;;;;;;;;;;;;;;;18.15;57.62;99499.19;10292142;28;787;-70
2023/10/23 06:51:44;;;;;;;;;;;;;;;18.16;57.70;99500.94;10290989;28;1300;-70
2023/10/23 06:56:40;;;;;;;;;;;;;;;18.20;57.55;99516.59;10291421;28;1910;-71
2023/10/23 07:01:36;;;;;;;;;;;;;;;18.21;57.60;99507.75;10290448;28;969;-70
2023/10/23 07:06:31;;;;;;;;;;;;;;;18.20;57.52;99508.69;10291039;28;857;-72
2023/10/23 07:11:27;;;;;;;;;;;;;;;18.24;57.43;99515.53;10290548;28;941;-70
2023/10/23 07:16:23;;;;;;;;;;;;;;;18.24;57.58;99511.13;10290307;28;1949;-70
2023/10/23 07:21:23;;;;;;;;;;;;;;;18.24;57.68;99511.13;10290567;28;861;-70
2023/10/23 07:26:19;;;;;;;;;;;;;;;18.26;57.58;99511.03;10286815;28;1182;-71
2023/10/23 07:31:15;;;;;;;;;;;;;;;18.29;57.47;99516.16;10289594;28;1159;-71
2023/10/23 07:36:11;;;;;;;;;;;;;;;18.29;57.72;99513.53;10290152;28;1890;-71
2023/10/23 07:41:07;;;;;;;;;;;;;;;18.27;57.49;99503.03;10289353;28;1167;-71
2023/10/23 07:46:03;;;;;;;;;;;;;;;18.31;57.83;99506.38;10288940;28;1087;-70
2023/10/23 07:50:59;;;;;;;;;;;;;;;18.32;57.69;99510.75;10280075;28;1253;-70
2023/10/23 07:55:55;;;;;;;;;;;;;;;18.30;57.73;99515.22;10289192;28;1910;-70
2023/10/23 08:00:54;;;;;;;;;;;;;;;18.32;57.64;99510.75;10288998;28;773;-70
2023/10/23 08:05:49;;;;;;;;;;;;;;;18.34;57.60;99511.53;10288264;28;874;-70
2023/10/23 08:10:45;;;;;;;;;;;;;;;18.35;57.53;99503.50;10288576;28;764;-69
2023/10/23 08:15:43;;;;;;;;;;;;;;;18.35;57.74;99508.78;10288670;28;1909;-70
2023/10/23 08:20:38;;;;;;;;;;;;;;;18.35;57.64;99507.94;10288314;28;873;-70
2023/10/23 08:25:34;;;;;;;;;;;;;;;18.42;57.57;99493.53;10287042;28;2322;-70
2023/10/23 08:30:30;;;;;;;;;;;;;;;18.40;57.66;99504.13;10287822;28;1144;-68
2023/10/23 08:35:29;;;;;;;;;;;;;;;18.39;57.66;99489.25;10287073;28;1894;-69
2023/10/23 08:40:25;;;;;;;;;;;;;;;18.41;57.81;99489.16;10287692;28;878;-69
2023/10/23 08:45:21;;;;;;;;;;;;;;;18.44;57.59;99489.00;10288334;28;873;-69
2023/10/23 08:50:16;;;;;;;;;;;;;;;18.43;57.40;99486.47;10300855;28;1294;-69
2023/10/23 08:55:13;;;;;;;;;;;;;;;18.44;57.58;99488.16;10325922;28;1902;-68
2023/10/23 09:00:10;;;;;;;;;;;;;;;18.45;57.81;99481.97;10327198;28;1667;-70
2023/10/23 09:05:06;;;;;;;;;;;;;;;18.47;57.46;99480.06;10327083;28;818;-70
2023/10/23 09:10:05;;;;;;;;;;;;;;;18.46;57.60;99473.94;10326892;28;803;-69
2023/10/23 09:15:01;;;;;;;;;;;;;;;18.47;57.69;99465.13;10326370;28;1947;-69
2023/10/23 09:19:57;;;;;;;;;;;;;;;18.51;57.55;99469.28;10308494;28;759;-69
2023/10/23 09:24:52;;;;;;;;;;;;;;;18.53;57.52;99471.88;10326086;28;1183;-69
2023/10/23 09:29:48;;;;;;;;;;;;;;;18.52;57.54;99467.50;10326124;28;880;-69
2023/10/23 09:34:44;;;;;;;;;;;;;;;18.54;57.45;99461.22;10325801;28;1953;-69
2023/10/23 09:39:40;;;;;;;;;;;;;;;18.56;57.44;99462.00;10325561;28;834;-69
2023/10/23 09:44:36;;;;;;;;;;;;;;;18.58;57.33;99462.78;10325477;28;960;-70
2023/10/23 09:49:32;;;;;;;;;;;;;;;18.57;57.33;99454.94;10298394;28;1377;-69
2023/10/23 09:54:28;;;;;;;;;;;;;;;18.56;57.61;99442.66;10285778;28;1959;-70
2023/10/23 09:59:24;;;;;;;;;;;;;;;18.57;57.44;99447.84;10285079;28;873;-70
2023/10/23 10:04:20;;;;;;;;;;;;;;;18.59;57.43;99455.72;10284968;28;806;-69
2023/10/23 10:09:16;;;;;;;;;;;;;;;18.58;57.49;99457.50;10283996;28;905;-69
2023/10/23 10:14:12;;;;;;;;;;;;;;;18.60;57.51;99453.00;10285351;28;1894;-70
2023/10/23 10:19:08;;;;;;;;;;;;;;;18.63;57.40;99446.72;10285163;28;850;-69
2023/10/23 10:24:04;;;;;;;;;;;;;;;18.63;57.46;99433.50;10284507;28;814;-69
2023/10/23 10:29:00;;;;;;;;;;;;;;;18.64;57.39;99435.22;10283834;28;944;-69
2023/10/23 10:33:56;;;;;;;;;;;;;;;18.67;57.31;99428.91;10284797;28;1894;-70
2023/10/23 10:38:51;;;;;;;;;;;;;;;18.69;57.29;99419.13;10284804;28;814;-69
2023/10/23 10:43:47;;;;;;;;;;;;;;;18.67;57.54;99407.81;10284181;28;893;-69
2023/10/23 10:48:43;;;;;;;;;;;;;;;18.68;57.18;99406.84;10283840;28;1187;-69
2023/10/23 10:53:40;;;;;;;;;;;;;;;18.68;57.29;99404.22;10284032;28;1977;-69
2023/10/23 10:58:36;;;;;;;;;;;;;;;18.61;57.27;99398.41;10283823;28;965;-71
2023/10/23 11:03:32;;;;;;;;;;;;;;;18.54;57.58;99389.09;10283746;28;826;-71
2023/10/23 11:08:28;;;;;;;;;;;;;;;18.53;57.40;99392.69;10283654;28;873;-71
2023/10/23 11:13:24;;;;;;;;;;;;;;;18.51;57.76;99384.84;10284182;28;1898;-72
2023/10/23 11:18:20;;;;;;;;;;;;;;;18.51;57.59;99365.50;10286495;28;787;-71
2023/10/23 11:23:16;;;;;;;;;;;;;;;18.53;57.54;99366.28;10291879;28;889;-71
2023/10/23 11:28:12;;;;;;;;;;;;;;;18.52;57.62;99359.28;10290106;28;1190;-71
2023/10/23 11:33:08;;;;;;;;;;;;;;;18.49;57.66;99348.91;10290724;28;867;-71
2023/10/23 11:38:04;;;;;;;;;;;;;;;18.50;57.48;99356.75;10290353;28;1898;-71
2023/10/23 11:43:00;;;;;;;;;;;;;;;18.51;57.51;99344.41;10290295;28;861;-71
2023/10/23 11:47:56;;;;;;;;;;;;;;;18.50;57.55;99343.56;10290001;28;1039;-71
2023/10/23 11:52:52;;;;;;;;;;;;;;;18.50;57.54;99338.28;10290101;28;1377;-71
2023/10/23 11:57:48;;;;;;;;;;;;;;;18.51;57.53;99341.75;10289528;28;1985;-71
2023/10/23 12:02:45;;;;;;;;;;;;;;;18.51;57.55;99334.69;10289378;28;1045;-73
2023/10/23 12:07:41;;;;;;;;;;;;;;;18.51;57.65;99321.50;10289300;28;735;-71
2023/10/23 12:12:37;;;;;;;;;;;;;;;18.50;57.71;99309.25;10288488;28;982;-71
2023/10/23 12:17:33;;;;;;;;;;;;;;;18.53;57.62;99318.78;10326658;28;1973;-71
2023/10/23 12:22:28;;;;;;;;;;;;;;;18.50;57.57;99314.53;10329134;28;1176;-71
2023/10/23 12:27:25;;;;;;;;;;;;;;;18.52;57.65;99307.38;10329327;28;865;-71
2023/10/23 12:32:20;;;;;;;;;;;;;;;18.52;57.58;99302.09;10328825;28;864;-71
2023/10/23 12:37:16;;;;;;;;;;;;;;;18.52;57.68;99294.19;10328066;28;1886;-71
2023/10/23 12:42:12;;;;;;;;;;;;;;;18.50;57.52;99280.22;10328785;28;810;-71
2023/10/23 12:47:08;;;;;;;;;;;;;;;18.50;57.75;99272.28;10328024;28;1028;-71
2023/10/23 12:52:04;;;;;;;;;;;;;;;18.48;57.60;99271.53;10328156;28;1537;-71
2023/10/23 12:57:02;;;;;;;;;;;;;;;18.50;57.51;99268.81;10327791;28;1968;-71
2023/10/23 13:01:58;;;;;;;;;;;;;;;18.49;57.77;99261.81;10327686;28;879;-71
2023/10/23 13:06:54;;;;;;;;;;;;;;;18.48;57.85;99263.59;10326869;28;1204;-71
2023/10/23 13:11:51;;;;;;;;;;;;;;;18.46;57.76;99265.47;10327257;28;794;-71
2023/10/23 13:16:47;;;;;;;;;;;;;;;18.43;57.89;99259.50;10327223;28;1941;-71
2023/10/23 13:21:43;;;;;;;;;;;;;;;18.43;57.97;99255.06;10327323;28;880;-71
2023/10/23 13:26:39;;;;;;;;;;;;;;;18.40;57.98;99240.25;10327383;28;834;-71
2023/10/23 13:31:35;;;;;;;;;;;;;;;18.41;57.99;99235.84;10326913;28;834;-71
2023/10/23 13:36:30;;;;;;;;;;;;;;;18.43;57.98;99233.13;10326117;28;1898;-69
2023/10/23 13:41:27;;;;;;;;;;;;;;;18.44;57.84;99211.91;10325521;28;1362;-72
2023/10/23 13:46:23;;;;;;;;;;;;;;;18.46;57.88;99198.66;10325960;28;867;-71
2023/10/23 13:51:19;;;;;;;;;;;;;;;18.45;57.65;99189.88;10325701;28;1230;-71
2023/10/23 13:56:15;;;;;;;;;;;;;;;18.45;57.79;99184.59;10326189;28;1964;-71
2023/10/23 14:01:10;;;;;;;;;;;;;;;18.44;58.10;99168.84;10325310;28;780;-72
2023/10/23 14:06:07;;;;;;;;;;;;;;;18.43;57.97;99153.97;10322583;28;1148;-71
2023/10/23 14:11:03;;;;;;;;;;;;;;;18.41;58.06;99148.75;10325114;28;849;-71
2023/10/23 14:15:59;;;;;;;;;;;;;;;18.40;57.94;99144.44;10325294;28;1897;-69
2023/10/23 14:20:55;;;;;;;;;;;;;;;18.40;58.16;99144.44;10324833;28;762;-67
2023/10/23 14:25:51;;;;;;;;;;;;;;;18.39;58.07;99134.78;10324193;28;913;-68
2023/10/23 14:30:47;;;;;;;;;;;;;;;18.44;57.85;99131.91;10325185;28;818;-71
2023/10/23 14:35:43;;;;;;;;;;;;;;;18.47;57.65;99124.69;10324989;28;1919;-71
2023/10/23 14:40:39;;;;;;;;;;;;;;;18.49;57.66;99114.88;10324659;28;863;-71
2023/10/23 14:45:35;;;;;;;;;;;;;;;18.49;57.71;99099.03;10323831;28;951;-71
2023/10/23 14:50:31;;;;;;;;;;;;;;;18.49;57.64;99090.28;10324794;28;1102;-71
2023/10/23 14:55:27;;;;;;;;;;;;;;;18.46;57.95;99088.66;10330397;28;1914;-71
2023/10/23 15:00:22;;;;;;;;;;;;;;;18.44;57.99;99069.41;10332867;28;845;-71
2023/10/23 15:05:18;;;;;;;;;;;;;;;18.45;58.12;99067.66;10332512;28;1199;-71
2023/10/23 15:10:15;;;;;;;;;;;;;;;18.46;57.89;99058.78;10332942;28;981;-71
2023/10/23 15:15:11;;;;;;;;;;;;;;;18.46;57.90;99049.06;10332010;28;1893;-71
2023/10/23 15:20:07;;;;;;;;;;;;;;;18.45;57.90;99043.91;10331849;28;861;-72
2023/10/23 15:25:03;;;;;;;;;;;;;;;18.46;58.23;99027.97;10329019;28;1069;-71
2023/10/23 15:29:59;;;;;;;;;;;;;;;18.47;58.22;99018.25;10331822;28;889;-72
2023/10/23 15:34:55;;;;;;;;;;;;;;;18.48;58.29;99001.50;10328837;28;1914;-72
2023/10/23 15:39:52;;;;;;;;;;;;;;;18.48;58.13;98997.06;10330582;28;848;-72
2023/10/23 15:44:48;;;;;;;;;;;;;;;18.47;58.27;98978.66;10330828;28;947;-72
2023/10/23 15:49:43;;;;;;;;;;;;;;;18.47;58.48;98982.19;10330782;28;1401;-73
2023/10/23 15:54:39;;;;;;;;;;;;;;;18.49;58.21;98969.72;10329996;28;1979;-71
2023/10/23 15:59:35;;;;;;;;;;;;;;;18.49;58.30;98953.06;10329692;28;1047;-72
2023/10/23 16:04:31;;;;;;;;;;;;;;;18.48;58.26;98948.72;10328663;28;861;-71
2023/10/23 16:09:27;;;;;;;;;;;;;;;18.47;58.35;98969.00;10329848;28;805;-71
2023/10/23 16:14:25;;;;;;;;;;;;;;;18.47;58.37;98971.63;10329379;28;1898;-71
2023/10/23 16:19:21;;;;;;;;;;;;;;;18.49;58.40;98968.88;10329353;28;952;-72
2023/10/23 16:24:17;;;;;;;;;;;;;;;18.49;58.35;98959.16;10328851;28;992;-72
2023/10/23 16:29:13;;;;;;;;;;;;;;;18.50;58.33;98952.97;10329119;28;778;-72
2023/10/23 16:34:09;;;;;;;;;;;;;;;18.49;58.41;98945.13;10328687;28;1894;-73
2023/10/23 16:39:10;;;;;;;;;;;;;;;18.49;58.49;98948.63;10327944;28;783;-72
2023/10/23 16:44:06;;;;;;;;;;;;;;;18.49;58.56;98963.59;10328096;28;977;-72
2023/10/23 16:49:02;;;;;;;;;;;;;;;18.51;58.45;98977.56;10328368;28;1240;-72
2023/10/23 16:53:58;;;;;;;;;;;;;;;18.51;58.28;98983.69;10328236;28;1977;-72
2023/10/23 16:58:54;;;;;;;;;;;;;;;18.52;58.33;98995.97;10328323;28;877;-69
2023/10/23 17:03:50;;;;;;;;;;;;;;;18.66;58.23;99013.63;10327580;28;757;-73
2023/10/23 17:08:46;;;;;;;;;;;;;;;18.58;58.62;99018.50;10328082;28;783;-73
2023/10/23 17:13:41;;;;;;;;;;;;;;;18.55;58.56;99014.25;10326670;28;1902;-73
2023/10/23 17:18:37;;;;;;;;;;;;;;;18.57;58.57;99022.06;10326992;28;988;-73
2023/10/23 17:23:33;;;;;;;;;;;;;;;18.55;58.62;99014.25;10327805;28;798;-74
2023/10/23 17:28:29;;;;;;;;;;;;;;;18.54;58.60;98998.50;10327503;28;917;-73
2023/10/23 17:33:25;;;;;;;;;;;;;;;18.53;58.57;98981.81;10326628;28;1886;-73
2023/10/23 17:38:21;;;;;;;;;;;;;;;18.55;58.46;98969.38;10327418;28;775;-72
2023/10/23 17:43:17;;;;;;;;;;;;;;;18.58;58.56;98939.31;10327075;28;829;-74
2023/10/23 17:48:13;;;;;;;;;;;;;;;18.57;58.49;98925.25;10326382;28;1052;-74
2023/10/23 17:53:09;;;;;;;;;;;;;;;18.57;58.38;98916.50;10326295;28;1274;-73
2023/10/23 17:58:05;;;;;;;;;;;;;;;18.57;58.33;98919.13;10322320;28;1961;-73
2023/10/23 18:03:01;;;;;;;;;;;;;;;18.57;58.43;98898.88;10325784;28;810;-73
2023/10/23 18:07:56;;;;;;;;;;;;;;;18.60;58.43;98879.34;10325691;28;856;-71
2023/10/23 18:12:52;;;;;;;;;;;;;;;18.59;58.24;98846.84;10324902;28;944;-71
2023/10/23 18:17:48;;;;;;;;;;;;;;;18.58;58.47;98837.25;10324916;28;1951;-71
2023/10/23 18:22:44;;;;;;;;;;;;;;;18.58;58.41;98842.53;10325184;28;982;-73
2023/10/23 18:27:40;;;;;;;;;;;;;;;18.58;58.41;98829.31;10324794;28;931;-71
2023/10/23 18:32:36;;;;;;;;;;;;;;;18.62;58.34;98840.53;10324493;28;924;-70
2023/10/23 18:37:32;;;;;;;;;;;;;;;18.62;58.20;98851.94;10324578;28;1953;-71
2023/10/23 18:42:31;;;;;;;;;;;;;;;18.61;58.34;98846.75;10325496;28;821;-71
2023/10/23 18:47:27;;;;;;;;;;;;;;;18.61;58.48;98833.56;10324631;28;842;-72
2023/10/23 18:52:22;;;;;;;;;;;;;;;18.62;58.33;98825.53;10325055;28;1156;-72
2023/10/23 18:57:18;;;;;;;;;;;;;;;18.65;58.46;98828.94;10324868;28;1906;-72
2023/10/23 19:02:14;;;;;;;;;;;;;;;18.65;58.41;98816.56;10323835;28;1183;-72
2023/10/23 19:07:10;;;;;;;;;;;;;;;18.65;58.37;98818.38;10324008;28;767;-72
2023/10/23 19:12:06;;;;;;;;;;;;;;;18.62;58.50;98807.06;10324197;28;841;-71
2023/10/23 19:17:03;;;;;;;;;;;;;;;18.65;58.56;98806.03;10323735;28;1882;-71
2023/10/23 19:22:00;;;;;;;;;;;;;;;18.68;58.43;98799.72;10325208;28;870;-71
2023/10/23 19:26:56;;;;;;;;;;;;;;;18.69;58.41;98788.22;10324497;28;806;-71
2023/10/23 19:31:52;;;;;;;;;;;;;;;18.69;58.31;98793.50;10324646;28;974;-70
2023/10/23 19:36:48;;;;;;;;;;;;;;;18.69;58.42;98796.16;10323188;28;1894;-73
2023/10/23 19:41:44;;;;;;;;;;;;;;;18.65;58.51;98798.09;10328791;28;1034;-73
2023/10/23 19:46:40;;;;;;;;;;;;;;;18.65;58.51;98800.75;10330277;28;875;-73
2023/10/23 19:51:36;;;;;;;;;;;;;;;18.61;58.58;98794.81;10330588;28;1346;-73
2023/10/23 19:56:32;;;;;;;;;;;;;;;18.59;58.63;98791.41;10330899;28;1969;-73
2023/10/23 20:01:28;;;;;;;;;;;;;;;18.55;58.57;98774.09;10330498;28;1075;-73
2023/10/23 20:06:24;;;;;;;;;;;;;;;18.52;58.41;98774.28;10329821;28;882;-73
2023/10/23 20:11:20;;;;;;;;;;;;;;;18.51;58.65;98769.94;10330128;28;806;-73
2023/10/23 20:16:16;;;;;;;;;;;;;;;18.48;58.59;98761.38;10329862;28;1964;-73
2023/10/23 20:21:14;;;;;;;;;;;;;;;18.47;58.58;98760.53;10329216;28;904;-72
2023/10/23 20:26:09;;;;;;;;;;;;;;;18.44;58.85;98747.50;10330231;28;790;-71
2023/10/23 20:31:05;;;;;;;;;;;;;;;18.42;58.72;98728.31;10330777;28;881;-72
2023/10/23 20:36:01;;;;;;;;;;;;;;;18.39;58.78;98715.28;10329190;28;1902;-73
2023/10/23 20:40:59;;;;;;;;;;;;;;;18.37;58.70;98696.06;10329037;28;782;-73
2023/10/23 20:45:55;;;;;;;;;;;;;;;18.35;58.60;98695.31;10329176;28;838;-73
2023/10/23 20:50:50;;;;;;;;;;;;;;;18.34;58.52;98688.38;10326621;28;1535;-73
2023/10/23 20:55:49;;;;;;;;;;;;;;;18.32;58.76;98683.16;10328641;28;1910;-72
2023/10/23 21:00:45;;;;;;;;;;;;;;;18.31;58.58;98676.22;10328154;28;950;-73
2023/10/23 21:05:41;;;;;;;;;;;;;;;18.29;58.66;98658.78;10327972;28;764;-73
2023/10/23 21:10:37;;;;;;;;;;;;;;;18.27;58.81;98636.94;10327779;28;772;-72
2023/10/23 21:15:33;;;;;;;;;;;;;;;18.25;58.77;98637.00;10326804;28;1914;-72
2023/10/23 21:20:29;;;;;;;;;;;;;;;18.23;58.78;98630.13;10326963;28;762;-72
2023/10/23 21:25:24;;;;;;;;;;;;;;;18.19;58.79;98624.22;10327059;28;878;-72
2023/10/23 21:30:21;;;;;;;;;;;;;;;18.16;58.93;98604.16;10326391;28;885;-71
2023/10/23 21:35:17;;;;;;;;;;;;;;;18.14;59.12;98594.66;10326707;28;1956;-72
2023/10/23 21:40:13;;;;;;;;;;;;;;;18.17;58.75;98584.75;10326563;28;875;-73
2023/10/23 21:45:09;;;;;;;;;;;;;;;18.24;58.88;98589.66;10326461;28;794;-73
2023/10/23 21:50:05;;;;;;;;;;;;;;;18.15;59.05;98583.97;10327243;28;1116;-72
2023/10/23 21:55:00;;;;;;;;;;;;;;;18.13;58.91;98566.56;10326129;28;1914;-72
2023/10/23 21:59:56;;;;;;;;;;;;;;;18.11;59.12;98569.31;10326636;28;901;-72
2023/10/23 22:04:52;;;;;;;;;;;;;;;18.09;58.92;98560.66;10325284;28;976;-72
2023/10/23 22:09:48;;;;;;;;;;;;;;;18.08;59.01;98564.25;10326556;28;856;-72
2023/10/23 22:14:45;;;;;;;;;;;;;;;18.06;58.71;98566.13;10326242;28;1906;-72
2023/10/23 22:19:41;;;;;;;;;;;;;;;18.03;59.13;98563.69;10325743;28;853;-72
2023/10/23 22:24:37;;;;;;;;;;;;;;;18.01;59.07;98564.72;10325553;28;872;-72
2023/10/23 22:29:32;;;;;;;;;;;;;;;17.99;58.95;98558.69;10324538;28;1012;-72
2023/10/23 22:34:28;;;;;;;;;;;;;;;17.97;59.03;98556.13;10325021;28;1957;-71
2023/10/23 22:39:24;;;;;;;;;;;;;;;17.97;59.28;98553.50;10325079;28;882;-72
2023/10/23 22:44:20;;;;;;;;;;;;;;;17.95;59.25;98558.88;10325702;28;880;-72
2023/10/23 22:49:16;;;;;;;;;;;;;;;17.93;59.09;98547.59;10324722;28;1239;-71
2023/10/23 22:54:12;;;;;;;;;;;;;;;17.93;59.19;98538.84;10325043;28;1964;-71
2023/10/23 22:59:10;;;;;;;;;;;;;;;17.90;59.03;98531.13;10325492;28;865;-71
2023/10/23 23:04:06;;;;;;;;;;;;;;;17.89;59.04;98521.50;10325307;28;810;-71
2023/10/23 23:09:03;;;;;;;;;;;;;;;17.87;59.35;98507.59;10325200;28;871;-71
2023/10/23 23:13:59;;;;;;;;;;;;;;;17.87;59.13;98510.25;10326864;28;1898;-71
2023/10/23 23:18:55;;;;;;;;;;;;;;;17.86;59.18;98495.34;10332240;28;774;-71
2023/10/23 23:23:51;;;;;;;;;;;;;;;17.84;59.15;98492.81;10331957;28;935;-72
2023/10/23 23:28:47;;;;;;;;;;;;;;;17.82;59.24;98481.53;10331789;28;931;-71
2023/10/23 23:33:43;;;;;;;;;;;;;;;17.83;59.27;98477.94;10331471;28;1955;-71
2023/10/23 23:38:39;;;;;;;;;;;;;;;17.81;59.32;98469.28;10331605;28;939;-72
2023/10/23 23:43:37;;;;;;;;;;;;;;;17.79;59.30;98463.28;10331802;28;900;-71
2023/10/23 23:48:33;;;;;;;;;;;;;;;17.79;59.27;98472.91;10330894;28;894;-72
2023/10/23 23:53:29;;;;;;;;;;;;;;;17.78;59.41;98471.25;10331701;28;1313;-71
2023/10/23 23:58:25;;;;;;;;;;;;;;;17.77;59.29;98475.66;10332119;28;1918;-72
